sensor_id;sensor_type;location;lat;lon;timestamp;temperature;humidity
12815;DHT22;6472;52.328;13.070;2024-02-23T00:01:45;9.20;99.90
12815;DHT22;6472;52.328;13.070;2024-02-23T00:04:13;9.30;99.90
12815;DHT22;6472;52.328;13.070;2024-02-23T00:06:41;9.20;99.90
12815;DHT22;6472;52.328;13.070;2024-02-23T00:09:09;9.30;99.90
12815;DHT22;6472;52.328;13.070;2024-02-23T00:11:39;9.30;99.90
12815;DHT22;6472;52.328;13.070;2024-02-23T00:14:12;9.40;99.90
12815;DHT22;6472;52.328;13.070;2024-02-23T00:16:41;9.50;99.90
12815;DHT22;6472;52.328;13.070;2024-02-23T00:19:09;9.60;99.90
12815;DHT22;6472;52.328;13.070;2024-02-23T00:21:38;9.60;99.90
12815;DHT22;6472;52.328;13.070;2024-02-23T00:24:06;9.70;99.90
12815;DHT22;6472;52.328;13.070;2024-02-23T00:26:35;9.80;99.90
12815;DHT22;6472;52.328;13.070;2024-02-23T00:29:03;9.80;99.90
12815;DHT22;6472;52.328;13.070;2024-02-23T00:31:32;9.70;99.90
12815;DHT22;6472;52.328;13.070;2024-02-23T00:34:01;9.60;99.90
12815;DHT22;6472;52.328;13.070;2024-02-23T00:36:29;9.60;99.90
12815;DHT22;6472;52.328;13.070;2024-02-23T00:38:59;9.70;99.90
12815;DHT22;6472;52.328;13.070;2024-02-23T00:41:29;9.60;99.90
12815;DHT22;6472;52.328;13.070;2024-02-23T00:43:57;9.70;99.90
12815;DHT22;6472;52.328;13.070;2024-02-23T00:46:25;9.80;99.90
12815;DHT22;6472;52.328;13.070;2024-02-23T00:48:55;9.80;99.90
12815;DHT22;6472;52.328;13.070;2024-02-23T00:51:23;9.80;99.90
12815;DHT22;6472;52.328;13.070;2024-02-23T00:53:52;9.80;99.90
12815;DHT22;6472;52.328;13.070;2024-02-23T00:56:20;9.90;99.90
12815;DHT22;6472;52.328;13.070;2024-02-23T00:58:58;9.90;99.90
12815;DHT22;6472;52.328;13.070;2024-02-23T01:01:26;9.80;99.90
12815;DHT22;6472;52.328;13.070;2024-02-23T01:03:56;10.00;99.90
12815;DHT22;6472;52.328;13.070;2024-02-23T01:06:25;9.90;99.90
12815;DHT22;6472;52.328;13.070;2024-02-23T01:08:55;10.00;99.90
12815;DHT22;6472;52.328;13.070;2024-02-23T01:11:23;10.00;99.90
12815;DHT22;6472;52.328;13.070;2024-02-23T01:13:51;10.10;99.90
12815;DHT22;6472;52.328;13.070;2024-02-23T01:16:19;10.10;99.90
12815;DHT22;6472;52.328;13.070;2024-02-23T01:18:47;10.10;99.90
12815;DHT22;6472;52.328;13.070;2024-02-23T01:21:17;10.20;99.90
12815;DHT22;6472;52.328;13.070;2024-02-23T01:23:45;10.30;99.90
12815;DHT22;6472;52.328;13.070;2024-02-23T01:26:13;10.30;99.90
12815;DHT22;6472;52.328;13.070;2024-02-23T01:28:41;10.30;99.90
12815;DHT22;6472;52.328;13.070;2024-02-23T01:31:10;10.30;99.90
12815;DHT22;6472;52.328;13.070;2024-02-23T01:33:39;10.30;99.90
12815;DHT22;6472;52.328;13.070;2024-02-23T01:36:07;10.40;99.90
12815;DHT22;6472;52.328;13.070;2024-02-23T01:38:38;10.50;99.90
12815;DHT22;6472;52.328;13.070;2024-02-23T01:41:06;10.50;99.90
12815;DHT22;6472;52.328;13.070;2024-02-23T01:43:34;10.60;99.90
12815;DHT22;6472;52.328;13.070;2024-02-23T01:46:03;10.50;99.90
12815;DHT22;6472;52.328;13.070;2024-02-23T01:48:33;10.30;99.90
12815;DHT22;6472;52.328;13.070;2024-02-23T01:51:02;10.20;99.90
12815;DHT22;6472;52.328;13.070;2024-02-23T01:53:30;10.20;99.90
12815;DHT22;6472;52.328;13.070;2024-02-23T01:56:00;10.10;99.90
12815;DHT22;6472;52.328;13.070;2024-02-23T01:58:32;10.00;99.90
12815;DHT22;6472;52.328;13.070;2024-02-23T02:01:01;9.90;99.90
12815;DHT22;6472;52.328;13.070;2024-02-23T02:03:29;9.90;99.90
12815;DHT22;6472;52.328;13.070;2024-02-23T02:05:58;9.80;99.90
12815;DHT22;6472;52.328;13.070;2024-02-23T02:08:26;9.70;99.90
12815;DHT22;6472;52.328;13.070;2024-02-23T02:10:54;9.60;99.90
12815;DHT22;6472;52.328;13.070;2024-02-23T02:13:24;9.60;99.90
12815;DHT22;6472;52.328;13.070;2024-02-23T02:15:52;9.50;99.90
12815;DHT22;6472;52.328;13.070;2024-02-23T02:18:20;9.50;99.90
12815;DHT22;6472;52.328;13.070;2024-02-23T02:20:51;9.50;99.90
12815;DHT22;6472;52.328;13.070;2024-02-23T02:23:21;9.30;99.90
12815;DHT22;6472;52.328;13.070;2024-02-23T02:25:52;9.20;99.90
12815;DHT22;6472;52.328;13.070;2024-02-23T02:28:22;9.30;99.90
12815;DHT22;6472;52.328;13.070;2024-02-23T02:30:52;9.30;99.90
12815;DHT22;6472;52.328;13.070;2024-02-23T02:33:21;9.20;99.90
12815;DHT22;6472;52.328;13.070;2024-02-23T02:35:49;9.10;99.90
12815;DHT22;6472;52.328;13.070;2024-02-23T02:38:17;9.10;99.90
12815;DHT22;6472;52.328;13.070;2024-02-23T02:40:46;9.10;99.90
12815;DHT22;6472;52.328;13.070;2024-02-23T02:43:14;9.00;99.90
12815;DHT22;6472;52.328;13.070;2024-02-23T02:45:42;9.00;99.90
12815;DHT22;6472;52.328;13.070;2024-02-23T02:48:12;9.00;99.90
12815;DHT22;6472;52.328;13.070;2024-02-23T02:50:40;9.00;99.90
12815;DHT22;6472;52.328;13.070;2024-02-23T02:53:08;9.00;99.90
12815;DHT22;6472;52.328;13.070;2024-02-23T02:55:37;9.10;99.90
12815;DHT22;6472;52.328;13.070;2024-02-23T02:58:05;9.10;99.90
12815;DHT22;6472;52.328;13.070;2024-02-23T03:00:32;9.10;99.90
12815;DHT22;6472;52.328;13.070;2024-02-23T03:03:01;9.00;99.90
12815;DHT22;6472;52.328;13.070;2024-02-23T03:05:30;9.00;99.90
12815;DHT22;6472;52.328;13.070;2024-02-23T03:07:58;8.90;99.90
12815;DHT22;6472;52.328;13.070;2024-02-23T03:10:27;8.90;99.90
12815;DHT22;6472;52.328;13.070;2024-02-23T03:12:55;8.90;99.90
12815;DHT22;6472;52.328;13.070;2024-02-23T03:15:23;8.80;99.90
12815;DHT22;6472;52.328;13.070;2024-02-23T03:17:51;8.80;99.90
12815;DHT22;6472;52.328;13.070;2024-02-23T03:20:21;8.80;99.90
12815;DHT22;6472;52.328;13.070;2024-02-23T03:22:51;8.80;99.90
12815;DHT22;6472;52.328;13.070;2024-02-23T03:25:19;8.70;99.90
12815;DHT22;6472;52.328;13.070;2024-02-23T03:27:47;8.70;99.90
12815;DHT22;6472;52.328;13.070;2024-02-23T03:30:15;8.60;99.90
12815;DHT22;6472;52.328;13.070;2024-02-23T03:32:43;8.50;99.90
12815;DHT22;6472;52.328;13.070;2024-02-23T03:35:14;8.50;99.90
12815;DHT22;6472;52.328;13.070;2024-02-23T03:37:42;8.60;99.90
12815;DHT22;6472;52.328;13.070;2024-02-23T03:40:12;8.50;99.90
12815;DHT22;6472;52.328;13.070;2024-02-23T03:42:40;8.60;99.90
12815;DHT22;6472;52.328;13.070;2024-02-23T03:45:09;8.50;99.90
12815;DHT22;6472;52.328;13.070;2024-02-23T03:47:37;8.50;99.90
12815;DHT22;6472;52.328;13.070;2024-02-23T03:50:06;8.50;99.90
12815;DHT22;6472;52.328;13.070;2024-02-23T03:52:34;8.50;99.90
12815;DHT22;6472;52.328;13.070;2024-02-23T03:55:02;8.50;99.90
12815;DHT22;6472;52.328;13.070;2024-02-23T03:57:32;8.40;99.90
12815;DHT22;6472;52.328;13.070;2024-02-23T04:00:00;8.40;99.90
12815;DHT22;6472;52.328;13.070;2024-02-23T04:02:29;8.40;99.90
12815;DHT22;6472;52.328;13.070;2024-02-23T04:04:57;8.40;99.90
12815;DHT22;6472;52.328;13.070;2024-02-23T04:07:25;8.40;99.90
12815;DHT22;6472;52.328;13.070;2024-02-23T04:09:53;8.40;99.90
12815;DHT22;6472;52.328;13.070;2024-02-23T04:12:21;8.40;99.90
12815;DHT22;6472;52.328;13.070;2024-02-23T04:14:51;8.20;99.90
12815;DHT22;6472;52.328;13.070;2024-02-23T04:17:19;8.20;99.90
12815;DHT22;6472;52.328;13.070;2024-02-23T04:19:47;8.20;99.90
12815;DHT22;6472;52.328;13.070;2024-02-23T04:22:15;8.10;99.90
12815;DHT22;6472;52.328;13.070;2024-02-23T04:24:43;8.10;99.90
12815;DHT22;6472;52.328;13.070;2024-02-23T04:27:11;8.10;99.90
12815;DHT22;6472;52.328;13.070;2024-02-23T04:29:39;8.00;99.90
12815;DHT22;6472;52.328;13.070;2024-02-23T04:32:09;7.90;99.90
12815;DHT22;6472;52.328;13.070;2024-02-23T04:34:37;8.00;99.90
12815;DHT22;6472;52.328;13.070;2024-02-23T04:37:06;7.90;99.90
12815;DHT22;6472;52.328;13.070;2024-02-23T04:39:34;8.00;99.90
12815;DHT22;6472;52.328;13.070;2024-02-23T04:42:02;8.00;99.90
12815;DHT22;6472;52.328;13.070;2024-02-23T04:44:30;7.90;99.90
12815;DHT22;6472;52.328;13.070;2024-02-23T04:46:58;8.10;99.90
12815;DHT22;6472;52.328;13.070;2024-02-23T04:49:28;8.00;99.90
12815;DHT22;6472;52.328;13.070;2024-02-23T04:51:56;7.90;99.90
12815;DHT22;6472;52.328;13.070;2024-02-23T04:54:24;7.90;99.90
12815;DHT22;6472;52.328;13.070;2024-02-23T04:56:53;7.90;99.90
12815;DHT22;6472;52.328;13.070;2024-02-23T04:59:21;7.80;99.90
12815;DHT22;6472;52.328;13.070;2024-02-23T05:01:49;7.80;99.90
12815;DHT22;6472;52.328;13.070;2024-02-23T05:04:17;7.70;99.90
12815;DHT22;6472;52.328;13.070;2024-02-23T05:06:46;7.70;99.90
12815;DHT22;6472;52.328;13.070;2024-02-23T05:09:15;7.70;99.90
12815;DHT22;6472;52.328;13.070;2024-02-23T05:11:43;7.70;99.90
12815;DHT22;6472;52.328;13.070;2024-02-23T05:14:13;7.80;99.90
12815;DHT22;6472;52.328;13.070;2024-02-23T05:16:41;7.70;99.90
12815;DHT22;6472;52.328;13.070;2024-02-23T05:19:09;7.60;99.90
12815;DHT22;6472;52.328;13.070;2024-02-23T05:21:37;7.60;99.90
12815;DHT22;6472;52.328;13.070;2024-02-23T05:24:07;7.50;99.90
12815;DHT22;6472;52.328;13.070;2024-02-23T05:26:35;7.50;99.90
12815;DHT22;6472;52.328;13.070;2024-02-23T05:29:03;7.40;99.90
12815;DHT22;6472;52.328;13.070;2024-02-23T05:31:44;7.40;99.90
12815;DHT22;6472;52.328;13.070;2024-02-23T05:34:13;7.20;99.90
12815;DHT22;6472;52.328;13.070;2024-02-23T05:36:42;7.10;99.90
12815;DHT22;6472;52.328;13.070;2024-02-23T05:39:12;7.00;99.90
12815;DHT22;6472;52.328;13.070;2024-02-23T05:41:42;6.90;99.90
12815;DHT22;6472;52.328;13.070;2024-02-23T05:44:10;6.90;99.90
12815;DHT22;6472;52.328;13.070;2024-02-23T05:46:42;6.90;99.90
12815;DHT22;6472;52.328;13.070;2024-02-23T05:49:10;6.70;99.90
12815;DHT22;6472;52.328;13.070;2024-02-23T05:51:39;6.80;99.90
12815;DHT22;6472;52.328;13.070;2024-02-23T05:54:07;6.70;99.90
12815;DHT22;6472;52.328;13.070;2024-02-23T05:56:37;6.60;99.90
12815;DHT22;6472;52.328;13.070;2024-02-23T05:59:05;6.60;99.90
12815;DHT22;6472;52.328;13.070;2024-02-23T06:01:33;6.50;99.90
12815;DHT22;6472;52.328;13.070;2024-02-23T06:04:01;6.50;99.90
12815;DHT22;6472;52.328;13.070;2024-02-23T06:06:30;6.40;99.90
12815;DHT22;6472;52.328;13.070;2024-02-23T06:08:58;6.50;99.90
12815;DHT22;6472;52.328;13.070;2024-02-23T06:11:26;6.60;99.90
12815;DHT22;6472;52.328;13.070;2024-02-23T06:13:56;6.50;99.90
12815;DHT22;6472;52.328;13.070;2024-02-23T06:16:24;6.50;99.90
12815;DHT22;6472;52.328;13.070;2024-02-23T06:18:53;6.50;99.90
12815;DHT22;6472;52.328;13.070;2024-02-23T06:21:21;6.50;99.90
12815;DHT22;6472;52.328;13.070;2024-02-23T06:23:49;6.50;99.90
12815;DHT22;6472;52.328;13.070;2024-02-23T06:26:17;6.40;99.90
12815;DHT22;6472;52.328;13.070;2024-02-23T06:28:45;6.30;99.90
12815;DHT22;6472;52.328;13.070;2024-02-23T06:31:15;6.20;99.90
12815;DHT22;6472;52.328;13.070;2024-02-23T06:33:44;6.30;99.90
12815;DHT22;6472;52.328;13.070;2024-02-23T06:36:15;6.30;99.90
12815;DHT22;6472;52.328;13.070;2024-02-23T06:38:44;6.20;99.90
12815;DHT22;6472;52.328;13.070;2024-02-23T06:41:12;6.30;99.90
12815;DHT22;6472;52.328;13.070;2024-02-23T06:43:41;6.40;99.90
12815;DHT22;6472;52.328;13.070;2024-02-23T06:46:09;6.40;99.90
12815;DHT22;6472;52.328;13.070;2024-02-23T06:48:39;6.40;99.90
12815;DHT22;6472;52.328;13.070;2024-02-23T06:51:07;6.40;99.90
12815;DHT22;6472;52.328;13.070;2024-02-23T06:53:36;6.50;99.90
12815;DHT22;6472;52.328;13.070;2024-02-23T06:56:05;6.60;99.90
12815;DHT22;6472;52.328;13.070;2024-02-23T06:58:34;6.60;99.90
12815;DHT22;6472;52.328;13.070;2024-02-23T07:01:03;6.70;99.90
12815;DHT22;6472;52.328;13.070;2024-02-23T07:03:33;6.80;99.90
12815;DHT22;6472;52.328;13.070;2024-02-23T07:06:04;6.80;99.90
12815;DHT22;6472;52.328;13.070;2024-02-23T07:08:32;6.70;99.90
12815;DHT22;6472;52.328;13.070;2024-02-23T07:11:00;6.60;99.90
12815;DHT22;6472;52.328;13.070;2024-02-23T07:13:28;6.70;99.90
12815;DHT22;6472;52.328;13.070;2024-02-23T07:15:57;6.70;99.90
12815;DHT22;6472;52.328;13.070;2024-02-23T07:18:26;6.80;99.90
12815;DHT22;6472;52.328;13.070;2024-02-23T07:20:54;6.80;99.90
12815;DHT22;6472;52.328;13.070;2024-02-23T07:23:23;6.80;99.90
12815;DHT22;6472;52.328;13.070;2024-02-23T07:25:51;6.80;99.90
12815;DHT22;6472;52.328;13.070;2024-02-23T07:28:20;6.90;99.90
12815;DHT22;6472;52.328;13.070;2024-02-23T07:30:50;6.80;99.90
12815;DHT22;6472;52.328;13.070;2024-02-23T07:33:19;6.80;99.90
12815;DHT22;6472;52.328;13.070;2024-02-23T07:35:48;6.90;99.90
12815;DHT22;6472;52.328;13.070;2024-02-23T07:38:16;7.00;99.90
12815;DHT22;6472;52.328;13.070;2024-02-23T07:40:46;7.10;99.90
12815;DHT22;6472;52.328;13.070;2024-02-23T07:43:14;7.20;99.90
12815;DHT22;6472;52.328;13.070;2024-02-23T07:45:42;7.20;99.90
12815;DHT22;6472;52.328;13.070;2024-02-23T07:48:11;7.40;99.90
12815;DHT22;6472;52.328;13.070;2024-02-23T07:50:39;7.50;99.90
12815;DHT22;6472;52.328;13.070;2024-02-23T07:53:07;7.70;99.90
12815;DHT22;6472;52.328;13.070;2024-02-23T07:55:36;7.70;99.90
12815;DHT22;6472;52.328;13.070;2024-02-23T07:58:05;7.90;99.90
12815;DHT22;6472;52.328;13.070;2024-02-23T08:00:34;8.00;99.90
12815;DHT22;6472;52.328;13.070;2024-02-23T08:03:05;8.10;99.90
12815;DHT22;6472;52.328;13.070;2024-02-23T08:05:35;8.10;99.90
12815;DHT22;6472;52.328;13.070;2024-02-23T08:08:03;8.20;99.90
12815;DHT22;6472;52.328;13.070;2024-02-23T08:10:33;8.30;99.90
12815;DHT22;6472;52.328;13.070;2024-02-23T08:13:02;8.30;99.90
12815;DHT22;6472;52.328;13.070;2024-02-23T08:15:31;8.40;99.90
12815;DHT22;6472;52.328;13.070;2024-02-23T08:17:59;8.40;99.90
12815;DHT22;6472;52.328;13.070;2024-02-23T08:20:27;8.50;99.90
12815;DHT22;6472;52.328;13.070;2024-02-23T08:22:56;8.50;99.90
12815;DHT22;6472;52.328;13.070;2024-02-23T08:25:24;8.50;99.90
12815;DHT22;6472;52.328;13.070;2024-02-23T08:27:55;8.50;99.90
12815;DHT22;6472;52.328;13.070;2024-02-23T08:30:23;8.50;99.90
12815;DHT22;6472;52.328;13.070;2024-02-23T08:32:53;8.50;99.90
12815;DHT22;6472;52.328;13.070;2024-02-23T08:35:21;8.50;99.90
12815;DHT22;6472;52.328;13.070;2024-02-23T08:37:49;8.50;99.90
12815;DHT22;6472;52.328;13.070;2024-02-23T08:40:18;8.50;99.90
12815;DHT22;6472;52.328;13.070;2024-02-23T08:42:46;8.70;99.90
12815;DHT22;6472;52.328;13.070;2024-02-23T08:45:16;8.60;99.90
12815;DHT22;6472;52.328;13.070;2024-02-23T08:47:45;8.60;99.90
12815;DHT22;6472;52.328;13.070;2024-02-23T08:50:14;8.70;99.90
12815;DHT22;6472;52.328;13.070;2024-02-23T08:52:42;9.00;99.90
12815;DHT22;6472;52.328;13.070;2024-02-23T08:55:11;8.90;99.90
12815;DHT22;6472;52.328;13.070;2024-02-23T08:57:39;9.10;99.90
12815;DHT22;6472;52.328;13.070;2024-02-23T09:00:08;9.10;99.90
12815;DHT22;6472;52.328;13.070;2024-02-23T09:02:40;9.20;99.90
12815;DHT22;6472;52.328;13.070;2024-02-23T09:05:09;9.50;99.90
12815;DHT22;6472;52.328;13.070;2024-02-23T09:07:38;9.50;99.90
12815;DHT22;6472;52.328;13.070;2024-02-23T09:10:08;9.50;99.90
12815;DHT22;6472;52.328;13.070;2024-02-23T09:12:36;9.50;99.90
12815;DHT22;6472;52.328;13.070;2024-02-23T09:15:05;9.90;99.90
12815;DHT22;6472;52.328;13.070;2024-02-23T09:17:34;10.00;99.90
12815;DHT22;6472;52.328;13.070;2024-02-23T09:20:03;10.20;99.90
12815;DHT22;6472;52.328;13.070;2024-02-23T09:22:31;10.20;99.90
12815;DHT22;6472;52.328;13.070;2024-02-23T09:25:01;9.80;99.90
12815;DHT22;6472;52.328;13.070;2024-02-23T09:27:29;9.80;99.90
12815;DHT22;6472;52.328;13.070;2024-02-23T09:29:57;9.90;99.90
12815;DHT22;6472;52.328;13.070;2024-02-23T09:32:25;10.00;99.90
12815;DHT22;6472;52.328;13.070;2024-02-23T09:34:53;10.30;99.90
12815;DHT22;6472;52.328;13.070;2024-02-23T09:37:21;10.00;99.90
12815;DHT22;6472;52.328;13.070;2024-02-23T09:39:49;9.80;99.90
12815;DHT22;6472;52.328;13.070;2024-02-23T09:42:22;9.60;99.90
12815;DHT22;6472;52.328;13.070;2024-02-23T09:44:58;10.00;99.90
12815;DHT22;6472;52.328;13.070;2024-02-23T09:47:27;10.40;99.90
12815;DHT22;6472;52.328;13.070;2024-02-23T09:49:56;10.70;99.90
12815;DHT22;6472;52.328;13.070;2024-02-23T09:52:24;10.60;99.90
12815;DHT22;6472;52.328;13.070;2024-02-23T09:54:55;10.20;99.90
12815;DHT22;6472;52.328;13.070;2024-02-23T09:57:25;10.20;99.90
12815;DHT22;6472;52.328;13.070;2024-02-23T09:59:53;10.10;99.90
12815;DHT22;6472;52.328;13.070;2024-02-23T10:02:22;10.40;99.90
12815;DHT22;6472;52.328;13.070;2024-02-23T10:04:51;10.60;99.90
12815;DHT22;6472;52.328;13.070;2024-02-23T10:07:23;10.50;99.90
12815;DHT22;6472;52.328;13.070;2024-02-23T10:09:53;10.20;99.90
12815;DHT22;6472;52.328;13.070;2024-02-23T10:12:23;10.20;99.90
12815;DHT22;6472;52.328;13.070;2024-02-23T10:14:51;10.20;99.90
12815;DHT22;6472;52.328;13.070;2024-02-23T10:17:20;10.30;99.90
12815;DHT22;6472;52.328;13.070;2024-02-23T10:19:48;10.20;99.90
12815;DHT22;6472;52.328;13.070;2024-02-23T10:22:16;10.40;99.90
12815;DHT22;6472;52.328;13.070;2024-02-23T10:24:44;10.50;99.90
12815;DHT22;6472;52.328;13.070;2024-02-23T10:27:12;10.60;99.90
12815;DHT22;6472;52.328;13.070;2024-02-23T10:29:42;10.50;99.90
12815;DHT22;6472;52.328;13.070;2024-02-23T10:32:14;10.80;99.90
12815;DHT22;6472;52.328;13.070;2024-02-23T10:34:43;10.60;99.90
12815;DHT22;6472;52.328;13.070;2024-02-23T10:37:11;10.50;99.90
12815;DHT22;6472;52.328;13.070;2024-02-23T10:39:39;10.40;99.90
12815;DHT22;6472;52.328;13.070;2024-02-23T10:42:09;10.30;99.90
12815;DHT22;6472;52.328;13.070;2024-02-23T10:44:37;10.20;99.90
12815;DHT22;6472;52.328;13.070;2024-02-23T10:47:08;10.10;99.90
12815;DHT22;6472;52.328;13.070;2024-02-23T10:49:38;10.20;99.90
12815;DHT22;6472;52.328;13.070;2024-02-23T10:52:07;10.50;99.90
12815;DHT22;6472;52.328;13.070;2024-02-23T10:54:39;10.50;99.90
12815;DHT22;6472;52.328;13.070;2024-02-23T10:57:08;10.40;99.90
12815;DHT22;6472;52.328;13.070;2024-02-23T10:59:36;10.20;99.90
12815;DHT22;6472;52.328;13.070;2024-02-23T11:02:05;10.20;99.90
12815;DHT22;6472;52.328;13.070;2024-02-23T11:04:35;10.30;99.90
12815;DHT22;6472;52.328;13.070;2024-02-23T11:07:13;10.30;99.90
12815;DHT22;6472;52.328;13.070;2024-02-23T11:09:41;10.50;99.90
12815;DHT22;6472;52.328;13.070;2024-02-23T11:12:09;10.40;99.90
12815;DHT22;6472;52.328;13.070;2024-02-23T11:14:38;10.40;99.90
12815;DHT22;6472;52.328;13.070;2024-02-23T11:17:07;10.40;99.90
12815;DHT22;6472;52.328;13.070;2024-02-23T11:19:49;10.40;99.90
12815;DHT22;6472;52.328;13.070;2024-02-23T11:22:24;10.40;99.90
12815;DHT22;6472;52.328;13.070;2024-02-23T11:25:05;10.20;99.90
12815;DHT22;6472;52.328;13.070;2024-02-23T11:27:36;10.40;99.90
12815;DHT22;6472;52.328;13.070;2024-02-23T11:30:05;10.40;99.90
12815;DHT22;6472;52.328;13.070;2024-02-23T11:32:38;10.40;99.90
12815;DHT22;6472;52.328;13.070;2024-02-23T11:35:11;10.20;99.90
12815;DHT22;6472;52.328;13.070;2024-02-23T11:37:47;10.10;99.90
12815;DHT22;6472;52.328;13.070;2024-02-23T11:40:15;10.00;99.90
12815;DHT22;6472;52.328;13.070;2024-02-23T11:42:44;10.10;99.90
12815;DHT22;6472;52.328;13.070;2024-02-23T11:45:14;10.00;99.90
12815;DHT22;6472;52.328;13.070;2024-02-23T11:47:43;10.00;99.90
12815;DHT22;6472;52.328;13.070;2024-02-23T11:50:13;10.10;99.90
12815;DHT22;6472;52.328;13.070;2024-02-23T11:52:42;10.10;99.90
12815;DHT22;6472;52.328;13.070;2024-02-23T11:55:11;10.00;99.90
12815;DHT22;6472;52.328;13.070;2024-02-23T11:57:40;10.10;99.90
12815;DHT22;6472;52.328;13.070;2024-02-23T12:00:15;10.20;99.90
12815;DHT22;6472;52.328;13.070;2024-02-23T12:02:43;10.10;99.90
12815;DHT22;6472;52.328;13.070;2024-02-23T12:05:13;10.00;99.30
12815;DHT22;6472;52.328;13.070;2024-02-23T12:07:42;10.10;99.90
12815;DHT22;6472;52.328;13.070;2024-02-23T12:10:13;10.20;99.90
12815;DHT22;6472;52.328;13.070;2024-02-23T12:12:42;10.10;99.90
12815;DHT22;6472;52.328;13.070;2024-02-23T12:15:11;9.90;99.90
12815;DHT22;6472;52.328;13.070;2024-02-23T12:17:47;10.10;99.90
12815;DHT22;6472;52.328;13.070;2024-02-23T12:20:17;10.10;99.90
12815;DHT22;6472;52.328;13.070;2024-02-23T12:22:46;10.10;99.90
12815;DHT22;6472;52.328;13.070;2024-02-23T12:25:15;10.10;99.90
12815;DHT22;6472;52.328;13.070;2024-02-23T12:27:43;10.10;99.90
12815;DHT22;6472;52.328;13.070;2024-02-23T12:30:13;10.00;99.90
12815;DHT22;6472;52.328;13.070;2024-02-23T12:32:43;10.00;99.90
12815;DHT22;6472;52.328;13.070;2024-02-23T12:35:12;10.20;99.90
12815;DHT22;6472;52.328;13.070;2024-02-23T12:37:44;10.20;99.70
12815;DHT22;6472;52.328;13.070;2024-02-23T12:40:13;10.10;99.90
12815;DHT22;6472;52.328;13.070;2024-02-23T12:42:41;10.10;99.90
12815;DHT22;6472;52.328;13.070;2024-02-23T12:45:09;10.00;99.90
12815;DHT22;6472;52.328;13.070;2024-02-23T12:47:37;9.80;99.90
12815;DHT22;6472;52.328;13.070;2024-02-23T12:50:07;9.70;99.90
12815;DHT22;6472;52.328;13.070;2024-02-23T12:52:37;9.70;99.90
12815;DHT22;6472;52.328;13.070;2024-02-23T12:55:07;9.80;99.90
12815;DHT22;6472;52.328;13.070;2024-02-23T12:57:35;9.80;99.90
12815;DHT22;6472;52.328;13.070;2024-02-23T13:00:05;9.90;99.90
12815;DHT22;6472;52.328;13.070;2024-02-23T13:02:33;9.70;99.90
12815;DHT22;6472;52.328;13.070;2024-02-23T13:05:02;9.70;99.90
12815;DHT22;6472;52.328;13.070;2024-02-23T13:07:30;9.80;99.90
12815;DHT22;6472;52.328;13.070;2024-02-23T13:09:59;9.80;99.90
12815;DHT22;6472;52.328;13.070;2024-02-23T13:12:29;9.70;99.90
12815;DHT22;6472;52.328;13.070;2024-02-23T13:14:57;9.70;99.90
12815;DHT22;6472;52.328;13.070;2024-02-23T13:17:25;9.60;99.90
12815;DHT22;6472;52.328;13.070;2024-02-23T13:19:54;9.60;99.90
12815;DHT22;6472;52.328;13.070;2024-02-23T13:22:37;9.60;99.90
12815;DHT22;6472;52.328;13.070;2024-02-23T13:25:05;9.80;99.90
12815;DHT22;6472;52.328;13.070;2024-02-23T13:27:35;9.80;99.90
12815;DHT22;6472;52.328;13.070;2024-02-23T13:30:04;9.80;99.90
12815;DHT22;6472;52.328;13.070;2024-02-23T13:32:34;9.80;99.90
12815;DHT22;6472;52.328;13.070;2024-02-23T13:35:03;9.80;99.90
12815;DHT22;6472;52.328;13.070;2024-02-23T13:37:33;9.40;99.90
12815;DHT22;6472;52.328;13.070;2024-02-23T13:40:01;9.30;99.90
12815;DHT22;6472;52.328;13.070;2024-02-23T13:42:32;9.30;99.90
12815;DHT22;6472;52.328;13.070;2024-02-23T13:45:02;9.40;99.90
12815;DHT22;6472;52.328;13.070;2024-02-23T13:47:30;9.30;99.50
12815;DHT22;6472;52.328;13.070;2024-02-23T13:49:58;9.30;99.90
12815;DHT22;6472;52.328;13.070;2024-02-23T13:55:45;9.20;99.60
12815;DHT22;6472;52.328;13.070;2024-02-23T13:58:14;9.20;99.90
12815;DHT22;6472;52.328;13.070;2024-02-23T14:00:50;9.10;99.90
12815;DHT22;6472;52.328;13.070;2024-02-23T14:03:19;9.10;99.90
12815;DHT22;6472;52.328;13.070;2024-02-23T14:05:48;9.10;99.90
12815;DHT22;6472;52.328;13.070;2024-02-23T14:08:17;9.00;99.90
12815;DHT22;6472;52.328;13.070;2024-02-23T14:10:45;9.00;99.90
12815;DHT22;6472;52.328;13.070;2024-02-23T14:13:13;9.10;99.90
12815;DHT22;6472;52.328;13.070;2024-02-23T14:15:41;9.00;99.90
12815;DHT22;6472;52.328;13.070;2024-02-23T14:18:11;9.10;99.90
12815;DHT22;6472;52.328;13.070;2024-02-23T14:20:39;9.10;99.90
12815;DHT22;6472;52.328;13.070;2024-02-23T14:23:07;9.10;99.90
12815;DHT22;6472;52.328;13.070;2024-02-23T14:25:35;9.10;99.90
12815;DHT22;6472;52.328;13.070;2024-02-23T14:28:04;9.10;99.90
12815;DHT22;6472;52.328;13.070;2024-02-23T14:30:32;9.10;99.90
12815;DHT22;6472;52.328;13.070;2024-02-23T14:33:00;9.10;99.90
12815;DHT22;6472;52.328;13.070;2024-02-23T14:35:30;9.10;99.90
12815;DHT22;6472;52.328;13.070;2024-02-23T14:37:58;9.10;99.90
12815;DHT22;6472;52.328;13.070;2024-02-23T14:40:26;8.90;99.90
12815;DHT22;6472;52.328;13.070;2024-02-23T14:42:54;8.90;99.90
12815;DHT22;6472;52.328;13.070;2024-02-23T14:45:22;8.90;99.90
12815;DHT22;6472;52.328;13.070;2024-02-23T14:47:51;8.90;99.90
12815;DHT22;6472;52.328;13.070;2024-02-23T14:50:19;8.90;99.90
12815;DHT22;6472;52.328;13.070;2024-02-23T14:52:49;8.90;99.90
12815;DHT22;6472;52.328;13.070;2024-02-23T14:55:17;8.80;99.90
12815;DHT22;6472;52.328;13.070;2024-02-23T14:57:45;8.80;99.90
12815;DHT22;6472;52.328;13.070;2024-02-23T15:00:14;8.80;99.90
12815;DHT22;6472;52.328;13.070;2024-02-23T15:02:43;8.80;99.90
12815;DHT22;6472;52.328;13.070;2024-02-23T15:05:11;8.80;99.90
12815;DHT22;6472;52.328;13.070;2024-02-23T15:07:40;8.70;99.90
12815;DHT22;6472;52.328;13.070;2024-02-23T15:10:09;8.80;99.90
12815;DHT22;6472;52.328;13.070;2024-02-23T15:12:38;8.70;99.90
12815;DHT22;6472;52.328;13.070;2024-02-23T15:15:07;8.60;99.90
12815;DHT22;6472;52.328;13.070;2024-02-23T15:17:35;8.50;99.90
12815;DHT22;6472;52.328;13.070;2024-02-23T15:20:04;8.50;99.90
12815;DHT22;6472;52.328;13.070;2024-02-23T15:22:33;8.50;99.90
12815;DHT22;6472;52.328;13.070;2024-02-23T15:25:01;8.30;99.90
12815;DHT22;6472;52.328;13.070;2024-02-23T15:27:32;8.30;99.90
12815;DHT22;6472;52.328;13.070;2024-02-23T15:30:00;8.30;99.90
12815;DHT22;6472;52.328;13.070;2024-02-23T15:32:28;8.20;99.90
12815;DHT22;6472;52.328;13.070;2024-02-23T15:34:56;8.20;99.90
12815;DHT22;6472;52.328;13.070;2024-02-23T15:37:25;8.10;99.90
12815;DHT22;6472;52.328;13.070;2024-02-23T15:39:53;8.20;99.90
12815;DHT22;6472;52.328;13.070;2024-02-23T15:42:21;8.20;99.90
12815;DHT22;6472;52.328;13.070;2024-02-23T15:44:51;8.10;99.90
12815;DHT22;6472;52.328;13.070;2024-02-23T15:47:19;7.90;99.90
12815;DHT22;6472;52.328;13.070;2024-02-23T15:49:47;7.90;99.90
12815;DHT22;6472;52.328;13.070;2024-02-23T15:52:35;8.00;99.90
12815;DHT22;6472;52.328;13.070;2024-02-23T15:55:04;7.90;99.90
12815;DHT22;6472;52.328;13.070;2024-02-23T15:57:32;7.80;99.90